Main page
METAR-TAF:

METAR-TAF

Airports :

Sleipner, Norway

Oil platform

latitude: 58-22-00N, longitude: 001-54-25E, elevation: 50 m

Current weather observation

The report was made 34 minutes ago, at 18:20 UTC
Wind 11 kt from the North/Northwest
Temperature 7°C
Humidity 93%
Pressure 1028 hPa
Visibility: 1600 m
heavy rain

METAR: ENSL 261820Z AUTO 34011KT 1600NDV +RA BKN004/// 07/06 Q1028 W06/S4

Time: 20:54 (18:54 UTC)

Forecast

The report was made 4 hours and 54 minutes ago, at 14:00 UTC
Forecast valid from 26 at 15 UTC to 26 at 18 UTC
Wind 8 kt from the Northwest
Visibility 10 km or more
Few clouds at a height of 300 ft
Broken clouds at a height of 1200 ft
Temporary
from 26 at 15 UTC to 26 at 18 UTC
Visibility: 2000 m
Broken clouds at a height of 300 ft
mist

TAF: ENSL 261400Z 2615/2618 32008KT 9999 FEW003 BKN012 TEMPO 2615/2618 2000 BR BKN003

Weather observations and forecasts of more than 4000 airports (METAR and TAF reports).

The available stations are represented by yellow and red dots on the map.

Hover mouse over dot to see the name of the station.

Then click to see weather observations and forecasts.

To change the map : click on the green buttons with a black cross to zoom in, on the green button with a dash to zoom out, or on the green arrows for adjacent maps.


METAR-TAF: